sensor_id;sensor_type;location;lat;lon;timestamp;temperature;humidity
15937;DHT22;9163;48.818;8.976;2022-12-18T00:01:00;-9.10;99.90
15937;DHT22;9163;48.818;8.976;2022-12-18T00:03:32;-9.10;99.90
15937;DHT22;9163;48.818;8.976;2022-12-18T00:06:01;-9.10;99.90
15937;DHT22;9163;48.818;8.976;2022-12-18T00:08:28;-9.00;99.90
15937;DHT22;9163;48.818;8.976;2022-12-18T00:10:55;-9.00;99.90
15937;DHT22;9163;48.818;8.976;2022-12-18T00:13:29;-8.90;99.90
15937;DHT22;9163;48.818;8.976;2022-12-18T00:16:01;-8.90;99.90
15937;DHT22;9163;48.818;8.976;2022-12-18T00:18:29;-8.80;99.90
15937;DHT22;9163;48.818;8.976;2022-12-18T00:20:59;-8.80;99.90
15937;DHT22;9163;48.818;8.976;2022-12-18T00:23:28;-8.80;99.90
15937;DHT22;9163;48.818;8.976;2022-12-18T00:25:58;-8.80;99.90
15937;DHT22;9163;48.818;8.976;2022-12-18T00:28:26;-8.70;99.90
15937;DHT22;9163;48.818;8.976;2022-12-18T00:31:00;-8.70;99.90
15937;DHT22;9163;48.818;8.976;2022-12-18T00:33:27;-8.70;99.90
15937;DHT22;9163;48.818;8.976;2022-12-18T00:35:54;-8.70;99.90
15937;DHT22;9163;48.818;8.976;2022-12-18T00:38:21;-8.70;99.90
15937;DHT22;9163;48.818;8.976;2022-12-18T00:40:50;-8.70;99.90
15937;DHT22;9163;48.818;8.976;2022-12-18T00:43:17;-8.70;99.90
15937;DHT22;9163;48.818;8.976;2022-12-18T00:45:43;-8.70;99.90
15937;DHT22;9163;48.818;8.976;2022-12-18T00:48:10;-8.80;99.90
15937;DHT22;9163;48.818;8.976;2022-12-18T00:50:37;-8.80;99.90
15937;DHT22;9163;48.818;8.976;2022-12-18T00:53:05;-8.80;99.90
15937;DHT22;9163;48.818;8.976;2022-12-18T00:55:32;-8.80;99.90
15937;DHT22;9163;48.818;8.976;2022-12-18T00:58:00;-8.80;99.90
15937;DHT22;9163;48.818;8.976;2022-12-18T01:00:27;-8.90;99.90
15937;DHT22;9163;48.818;8.976;2022-12-18T01:02:55;-8.90;99.90
15937;DHT22;9163;48.818;8.976;2022-12-18T01:05:22;-9.00;99.90
15937;DHT22;9163;48.818;8.976;2022-12-18T01:07:49;-9.10;99.90
15937;DHT22;9163;48.818;8.976;2022-12-18T01:10:16;-9.10;99.90
15937;DHT22;9163;48.818;8.976;2022-12-18T01:12:44;-9.10;99.90
15937;DHT22;9163;48.818;8.976;2022-12-18T01:15:14;-9.20;99.90
15937;DHT22;9163;48.818;8.976;2022-12-18T01:17:41;-9.30;99.90
15937;DHT22;9163;48.818;8.976;2022-12-18T01:20:11;-9.40;99.90
15937;DHT22;9163;48.818;8.976;2022-12-18T01:22:39;-9.40;99.90
15937;DHT22;9163;48.818;8.976;2022-12-18T01:25:07;-9.50;99.90
15937;DHT22;9163;48.818;8.976;2022-12-18T01:27:34;-9.50;99.90
15937;DHT22;9163;48.818;8.976;2022-12-18T01:30:02;-9.50;99.90
15937;DHT22;9163;48.818;8.976;2022-12-18T01:32:31;-9.60;99.90
15937;DHT22;9163;48.818;8.976;2022-12-18T01:34:58;-9.60;99.90
15937;DHT22;9163;48.818;8.976;2022-12-18T01:37:25;-9.60;99.90
15937;DHT22;9163;48.818;8.976;2022-12-18T01:39:53;-9.60;99.90
15937;DHT22;9163;48.818;8.976;2022-12-18T01:42:21;-9.70;99.90
15937;DHT22;9163;48.818;8.976;2022-12-18T01:44:59;-9.60;99.90
15937;DHT22;9163;48.818;8.976;2022-12-18T01:47:31;-9.70;99.90
15937;DHT22;9163;48.818;8.976;2022-12-18T01:50:02;-9.70;99.90
15937;DHT22;9163;48.818;8.976;2022-12-18T01:52:31;-9.80;99.90
15937;DHT22;9163;48.818;8.976;2022-12-18T01:55:00;-9.80;99.90
15937;DHT22;9163;48.818;8.976;2022-12-18T01:57:29;-9.70;99.90
15937;DHT22;9163;48.818;8.976;2022-12-18T02:00:00;-9.60;99.90
15937;DHT22;9163;48.818;8.976;2022-12-18T02:02:28;-9.60;99.90
15937;DHT22;9163;48.818;8.976;2022-12-18T02:04:57;-9.60;99.90
15937;DHT22;9163;48.818;8.976;2022-12-18T02:07:32;-9.60;99.90
15937;DHT22;9163;48.818;8.976;2022-12-18T02:10:04;-9.50;99.90
15937;DHT22;9163;48.818;8.976;2022-12-18T02:12:40;-9.50;99.90
15937;DHT22;9163;48.818;8.976;2022-12-18T02:15:13;-9.40;99.90
15937;DHT22;9163;48.818;8.976;2022-12-18T02:17:47;-9.40;99.90
15937;DHT22;9163;48.818;8.976;2022-12-18T02:20:19;-9.30;99.90
15937;DHT22;9163;48.818;8.976;2022-12-18T02:23:01;-9.30;99.90
15937;DHT22;9163;48.818;8.976;2022-12-18T02:26:01;-9.20;99.90
15937;DHT22;9163;48.818;8.976;2022-12-18T02:28:32;-9.20;99.90
15937;DHT22;9163;48.818;8.976;2022-12-18T02:31:03;-9.10;99.90
15937;DHT22;9163;48.818;8.976;2022-12-18T02:33:32;-9.10;99.90
15937;DHT22;9163;48.818;8.976;2022-12-18T02:36:01;-9.00;99.90
15937;DHT22;9163;48.818;8.976;2022-12-18T02:38:29;-8.90;99.90
15937;DHT22;9163;48.818;8.976;2022-12-18T02:40:57;-8.90;99.90
15937;DHT22;9163;48.818;8.976;2022-12-18T02:43:26;-9.00;99.90
15937;DHT22;9163;48.818;8.976;2022-12-18T02:45:56;-9.10;99.90
15937;DHT22;9163;48.818;8.976;2022-12-18T02:48:27;-9.30;99.90
15937;DHT22;9163;48.818;8.976;2022-12-18T02:50:59;-9.50;99.90
15937;DHT22;9163;48.818;8.976;2022-12-18T02:53:36;-9.70;99.90
15937;DHT22;9163;48.818;8.976;2022-12-18T02:56:08;-9.80;99.90
15937;DHT22;9163;48.818;8.976;2022-12-18T02:58:43;-9.80;99.90
15937;DHT22;9163;48.818;8.976;2022-12-18T03:01:16;-9.80;99.90
15937;DHT22;9163;48.818;8.976;2022-12-18T03:03:47;-9.90;99.90
15937;DHT22;9163;48.818;8.976;2022-12-18T03:06:22;-10.00;99.90
15937;DHT22;9163;48.818;8.976;2022-12-18T03:08:57;-10.00;99.90
15937;DHT22;9163;48.818;8.976;2022-12-18T03:11:27;-10.00;99.90
15937;DHT22;9163;48.818;8.976;2022-12-18T03:14:16;-10.00;99.90
15937;DHT22;9163;48.818;8.976;2022-12-18T03:16:45;-10.00;99.90
15937;DHT22;9163;48.818;8.976;2022-12-18T03:19:16;-10.00;99.90
15937;DHT22;9163;48.818;8.976;2022-12-18T03:21:46;-9.90;99.90
15937;DHT22;9163;48.818;8.976;2022-12-18T03:24:15;-9.90;99.90
15937;DHT22;9163;48.818;8.976;2022-12-18T03:26:46;-9.80;99.90
15937;DHT22;9163;48.818;8.976;2022-12-18T03:29:19;-9.80;99.90
15937;DHT22;9163;48.818;8.976;2022-12-18T03:31:49;-9.90;99.90
15937;DHT22;9163;48.818;8.976;2022-12-18T03:34:23;-9.90;99.90
15937;DHT22;9163;48.818;8.976;2022-12-18T03:36:52;-9.90;99.90
15937;DHT22;9163;48.818;8.976;2022-12-18T03:39:19;-9.80;99.90
15937;DHT22;9163;48.818;8.976;2022-12-18T03:41:52;-9.90;99.90
15937;DHT22;9163;48.818;8.976;2022-12-18T03:44:28;-9.90;99.90
15937;DHT22;9163;48.818;8.976;2022-12-18T03:47:01;-10.00;99.90
15937;DHT22;9163;48.818;8.976;2022-12-18T03:49:34;-10.00;99.90
15937;DHT22;9163;48.818;8.976;2022-12-18T03:52:05;-10.00;99.90
15937;DHT22;9163;48.818;8.976;2022-12-18T03:54:34;-10.00;99.90
15937;DHT22;9163;48.818;8.976;2022-12-18T03:57:06;-10.00;99.90
15937;DHT22;9163;48.818;8.976;2022-12-18T03:59:36;-10.00;99.90
15937;DHT22;9163;48.818;8.976;2022-12-18T04:02:05;-10.00;99.90
15937;DHT22;9163;48.818;8.976;2022-12-18T04:04:34;-10.10;99.90
15937;DHT22;9163;48.818;8.976;2022-12-18T04:07:02;-10.10;99.90
15937;DHT22;9163;48.818;8.976;2022-12-18T04:09:31;-10.10;99.90
15937;DHT22;9163;48.818;8.976;2022-12-18T04:11:59;-10.10;99.90
15937;DHT22;9163;48.818;8.976;2022-12-18T04:14:27;-10.10;99.90
15937;DHT22;9163;48.818;8.976;2022-12-18T04:16:55;-10.10;99.90
15937;DHT22;9163;48.818;8.976;2022-12-18T04:19:22;-10.10;99.90
15937;DHT22;9163;48.818;8.976;2022-12-18T04:21:49;-10.10;99.90
15937;DHT22;9163;48.818;8.976;2022-12-18T04:24:17;-10.10;99.90
15937;DHT22;9163;48.818;8.976;2022-12-18T04:26:44;-10.10;99.90
15937;DHT22;9163;48.818;8.976;2022-12-18T04:29:11;-10.10;99.90
15937;DHT22;9163;48.818;8.976;2022-12-18T04:31:38;-10.10;99.90
15937;DHT22;9163;48.818;8.976;2022-12-18T04:34:07;-10.20;99.90
15937;DHT22;9163;48.818;8.976;2022-12-18T04:36:34;-10.30;99.90
15937;DHT22;9163;48.818;8.976;2022-12-18T04:39:01;-10.30;99.90
15937;DHT22;9163;48.818;8.976;2022-12-18T04:41:28;-10.30;99.90
15937;DHT22;9163;48.818;8.976;2022-12-18T04:43:55;-10.30;99.90
15937;DHT22;9163;48.818;8.976;2022-12-18T04:46:23;-10.30;99.90
15937;DHT22;9163;48.818;8.976;2022-12-18T04:48:50;-10.40;99.90
15937;DHT22;9163;48.818;8.976;2022-12-18T04:51:18;-10.40;99.90
15937;DHT22;9163;48.818;8.976;2022-12-18T04:53:45;-10.40;99.90
15937;DHT22;9163;48.818;8.976;2022-12-18T04:56:14;-10.40;99.90
15937;DHT22;9163;48.818;8.976;2022-12-18T04:58:43;-10.40;99.90
15937;DHT22;9163;48.818;8.976;2022-12-18T05:01:11;-10.40;99.90
15937;DHT22;9163;48.818;8.976;2022-12-18T05:03:39;-10.30;99.90
15937;DHT22;9163;48.818;8.976;2022-12-18T05:06:07;-10.30;99.90
15937;DHT22;9163;48.818;8.976;2022-12-18T05:08:35;-10.30;99.90
15937;DHT22;9163;48.818;8.976;2022-12-18T05:11:05;-10.30;99.90
15937;DHT22;9163;48.818;8.976;2022-12-18T05:13:32;-10.30;99.90
15937;DHT22;9163;48.818;8.976;2022-12-18T05:16:00;-10.30;99.90
15937;DHT22;9163;48.818;8.976;2022-12-18T05:18:28;-10.30;99.90
15937;DHT22;9163;48.818;8.976;2022-12-18T05:20:55;-10.30;99.90
15937;DHT22;9163;48.818;8.976;2022-12-18T05:23:23;-10.30;99.90
15937;DHT22;9163;48.818;8.976;2022-12-18T05:25:53;-10.20;99.90
15937;DHT22;9163;48.818;8.976;2022-12-18T05:28:22;-10.10;99.90
15937;DHT22;9163;48.818;8.976;2022-12-18T05:30:50;-10.00;99.90
15937;DHT22;9163;48.818;8.976;2022-12-18T05:33:17;-9.90;99.90
15937;DHT22;9163;48.818;8.976;2022-12-18T05:35:49;-9.80;99.90
15937;DHT22;9163;48.818;8.976;2022-12-18T05:38:17;-9.70;99.90
15937;DHT22;9163;48.818;8.976;2022-12-18T05:40:44;-9.60;99.90
15937;DHT22;9163;48.818;8.976;2022-12-18T05:43:12;-9.60;99.90
15937;DHT22;9163;48.818;8.976;2022-12-18T05:45:40;-9.50;99.90
15937;DHT22;9163;48.818;8.976;2022-12-18T05:48:08;-9.50;99.90
15937;DHT22;9163;48.818;8.976;2022-12-18T05:50:38;-9.40;99.90
15937;DHT22;9163;48.818;8.976;2022-12-18T05:53:06;-9.40;99.90
15937;DHT22;9163;48.818;8.976;2022-12-18T05:55:34;-9.30;99.90
15937;DHT22;9163;48.818;8.976;2022-12-18T05:58:02;-9.20;99.90
15937;DHT22;9163;48.818;8.976;2022-12-18T06:00:31;-9.20;99.90
15937;DHT22;9163;48.818;8.976;2022-12-18T06:02:59;-9.10;99.90
15937;DHT22;9163;48.818;8.976;2022-12-18T06:05:26;-9.10;99.90
15937;DHT22;9163;48.818;8.976;2022-12-18T06:07:53;-9.10;99.90
15937;DHT22;9163;48.818;8.976;2022-12-18T06:10:21;-9.10;99.90
15937;DHT22;9163;48.818;8.976;2022-12-18T06:12:48;-9.00;99.90
15937;DHT22;9163;48.818;8.976;2022-12-18T06:15:15;-8.90;99.90
15937;DHT22;9163;48.818;8.976;2022-12-18T06:17:44;-9.00;99.90
15937;DHT22;9163;48.818;8.976;2022-12-18T06:20:11;-8.90;99.90
15937;DHT22;9163;48.818;8.976;2022-12-18T06:22:38;-8.90;99.90
15937;DHT22;9163;48.818;8.976;2022-12-18T06:25:06;-8.90;99.90
15937;DHT22;9163;48.818;8.976;2022-12-18T06:27:33;-8.90;99.90
15937;DHT22;9163;48.818;8.976;2022-12-18T06:30:01;-8.90;99.90
15937;DHT22;9163;48.818;8.976;2022-12-18T06:32:28;-8.90;99.90
15937;DHT22;9163;48.818;8.976;2022-12-18T06:34:56;-9.00;99.90
15937;DHT22;9163;48.818;8.976;2022-12-18T06:37:23;-9.00;99.90
15937;DHT22;9163;48.818;8.976;2022-12-18T06:39:52;-9.00;99.90
15937;DHT22;9163;48.818;8.976;2022-12-18T06:42:19;-9.00;99.90
15937;DHT22;9163;48.818;8.976;2022-12-18T06:44:46;-9.00;99.90
15937;DHT22;9163;48.818;8.976;2022-12-18T06:47:13;-9.00;99.90
15937;DHT22;9163;48.818;8.976;2022-12-18T06:49:40;-9.00;99.90
15937;DHT22;9163;48.818;8.976;2022-12-18T06:52:09;-9.00;99.90
15937;DHT22;9163;48.818;8.976;2022-12-18T06:54:36;-9.10;99.90
15937;DHT22;9163;48.818;8.976;2022-12-18T06:57:03;-9.10;99.90
15937;DHT22;9163;48.818;8.976;2022-12-18T06:59:30;-9.20;99.90
15937;DHT22;9163;48.818;8.976;2022-12-18T07:01:58;-9.20;99.90
15937;DHT22;9163;48.818;8.976;2022-12-18T07:04:28;-9.20;99.90
15937;DHT22;9163;48.818;8.976;2022-12-18T07:06:55;-9.20;99.90
15937;DHT22;9163;48.818;8.976;2022-12-18T07:09:24;-9.20;99.90
15937;DHT22;9163;48.818;8.976;2022-12-18T07:11:51;-9.10;99.90
15937;DHT22;9163;48.818;8.976;2022-12-18T07:14:19;-9.10;99.90
15937;DHT22;9163;48.818;8.976;2022-12-18T07:16:46;-9.20;99.90
15937;DHT22;9163;48.818;8.976;2022-12-18T07:19:13;-9.30;99.90
15937;DHT22;9163;48.818;8.976;2022-12-18T07:21:40;-9.40;99.90
15937;DHT22;9163;48.818;8.976;2022-12-18T07:24:07;-9.20;99.90
15937;DHT22;9163;48.818;8.976;2022-12-18T07:26:36;-9.00;99.90
15937;DHT22;9163;48.818;8.976;2022-12-18T07:29:03;-8.80;99.90
15937;DHT22;9163;48.818;8.976;2022-12-18T07:31:31;-8.70;99.90
15937;DHT22;9163;48.818;8.976;2022-12-18T07:33:58;-8.60;99.90
15937;DHT22;9163;48.818;8.976;2022-12-18T07:36:25;-8.50;99.90
15937;DHT22;9163;48.818;8.976;2022-12-18T07:38:52;-8.30;99.90
15937;DHT22;9163;48.818;8.976;2022-12-18T07:41:20;-8.10;99.90
15937;DHT22;9163;48.818;8.976;2022-12-18T07:43:48;-7.90;99.90
15937;DHT22;9163;48.818;8.976;2022-12-18T07:46:15;-7.70;99.90
15937;DHT22;9163;48.818;8.976;2022-12-18T07:48:43;-7.30;99.90
15937;DHT22;9163;48.818;8.976;2022-12-18T07:51:10;-7.20;99.90
15937;DHT22;9163;48.818;8.976;2022-12-18T07:53:38;-6.70;99.90
15937;DHT22;9163;48.818;8.976;2022-12-18T07:56:07;-6.40;99.90
15937;DHT22;9163;48.818;8.976;2022-12-18T07:58:35;-6.10;99.90
15937;DHT22;9163;48.818;8.976;2022-12-18T08:01:05;-6.00;99.90
15937;DHT22;9163;48.818;8.976;2022-12-18T08:03:32;-5.80;99.90
15937;DHT22;9163;48.818;8.976;2022-12-18T08:06:00;-5.70;99.90
15937;DHT22;9163;48.818;8.976;2022-12-18T08:08:27;-5.40;99.90
15937;DHT22;9163;48.818;8.976;2022-12-18T08:10:54;-5.50;99.90
15937;DHT22;9163;48.818;8.976;2022-12-18T08:13:22;-5.20;99.90
15937;DHT22;9163;48.818;8.976;2022-12-18T08:15:56;-4.80;99.90
15937;DHT22;9163;48.818;8.976;2022-12-18T08:18:25;-4.60;99.90
15937;DHT22;9163;48.818;8.976;2022-12-18T08:20:52;-4.30;99.90
15937;DHT22;9163;48.818;8.976;2022-12-18T08:23:19;-3.90;99.90
15937;DHT22;9163;48.818;8.976;2022-12-18T08:25:49;-3.50;99.90
15937;DHT22;9163;48.818;8.976;2022-12-18T08:28:17;-3.00;99.90
15937;DHT22;9163;48.818;8.976;2022-12-18T08:30:44;-2.70;99.90
15937;DHT22;9163;48.818;8.976;2022-12-18T08:33:12;-2.10;99.90
15937;DHT22;9163;48.818;8.976;2022-12-18T08:35:40;-1.70;99.90
15937;DHT22;9163;48.818;8.976;2022-12-18T08:38:07;-1.70;99.90
15937;DHT22;9163;48.818;8.976;2022-12-18T08:40:35;-0.70;99.90
15937;DHT22;9163;48.818;8.976;2022-12-18T08:43:02;-0.40;99.90
15937;DHT22;9163;48.818;8.976;2022-12-18T08:45:47;-0.30;99.90
15937;DHT22;9163;48.818;8.976;2022-12-18T08:48:14;-0.10;99.90
15937;DHT22;9163;48.818;8.976;2022-12-18T08:50:42;0.50;99.90
15937;DHT22;9163;48.818;8.976;2022-12-18T08:53:09;0.30;99.90
15937;DHT22;9163;48.818;8.976;2022-12-18T08:55:37;0.10;99.90
15937;DHT22;9163;48.818;8.976;2022-12-18T08:58:04;0.60;99.90
15937;DHT22;9163;48.818;8.976;2022-12-18T09:00:31;1.10;99.90
15937;DHT22;9163;48.818;8.976;2022-12-18T09:02:58;1.10;99.90
15937;DHT22;9163;48.818;8.976;2022-12-18T09:05:25;1.10;99.90
15937;DHT22;9163;48.818;8.976;2022-12-18T09:07:54;1.40;99.90
15937;DHT22;9163;48.818;8.976;2022-12-18T09:10:22;1.60;99.90
15937;DHT22;9163;48.818;8.976;2022-12-18T09:12:49;0.80;99.90
15937;DHT22;9163;48.818;8.976;2022-12-18T09:15:16;1.40;99.90
15937;DHT22;9163;48.818;8.976;2022-12-18T09:17:43;2.40;99.90
15937;DHT22;9163;48.818;8.976;2022-12-18T09:20:11;2.20;99.90
15937;DHT22;9163;48.818;8.976;2022-12-18T09:22:38;2.30;99.90
15937;DHT22;9163;48.818;8.976;2022-12-18T09:25:07;2.90;99.90
15937;DHT22;9163;48.818;8.976;2022-12-18T09:27:34;3.20;99.90
15937;DHT22;9163;48.818;8.976;2022-12-18T09:30:02;3.20;99.90
15937;DHT22;9163;48.818;8.976;2022-12-18T09:32:29;2.70;99.90
15937;DHT22;9163;48.818;8.976;2022-12-18T09:34:56;2.90;99.90
15937;DHT22;9163;48.818;8.976;2022-12-18T09:37:23;3.00;99.90
15937;DHT22;9163;48.818;8.976;2022-12-18T09:39:50;3.30;99.90
15937;DHT22;9163;48.818;8.976;2022-12-18T09:42:21;2.80;99.90
15937;DHT22;9163;48.818;8.976;2022-12-18T09:44:50;3.00;99.90
15937;DHT22;9163;48.818;8.976;2022-12-18T09:47:23;3.60;99.90
15937;DHT22;9163;48.818;8.976;2022-12-18T09:49:53;4.10;99.90
15937;DHT22;9163;48.818;8.976;2022-12-18T09:52:25;4.70;99.90
15937;DHT22;9163;48.818;8.976;2022-12-18T09:54:55;4.70;99.90
15937;DHT22;9163;48.818;8.976;2022-12-18T09:57:25;4.50;99.90
15937;DHT22;9163;48.818;8.976;2022-12-18T09:59:56;4.80;99.90
15937;DHT22;9163;48.818;8.976;2022-12-18T10:02:26;5.50;99.90
15937;DHT22;9163;48.818;8.976;2022-12-18T10:05:06;5.40;99.90
15937;DHT22;9163;48.818;8.976;2022-12-18T10:07:42;5.80;99.90
15937;DHT22;9163;48.818;8.976;2022-12-18T10:10:18;6.30;99.90
15937;DHT22;9163;48.818;8.976;2022-12-18T10:12:53;6.10;99.90
15937;DHT22;9163;48.818;8.976;2022-12-18T10:15:26;7.20;99.90
15937;DHT22;9163;48.818;8.976;2022-12-18T10:18:00;6.90;99.90
15937;DHT22;9163;48.818;8.976;2022-12-18T10:20:34;5.40;99.90
15937;DHT22;9163;48.818;8.976;2022-12-18T10:23:14;5.20;99.90
15937;DHT22;9163;48.818;8.976;2022-12-18T10:25:53;5.20;99.90
15937;DHT22;9163;48.818;8.976;2022-12-18T10:28:24;5.40;99.90
15937;DHT22;9163;48.818;8.976;2022-12-18T10:30:52;5.40;99.90
15937;DHT22;9163;48.818;8.976;2022-12-18T10:33:21;6.10;99.90
15937;DHT22;9163;48.818;8.976;2022-12-18T10:35:50;6.40;99.90
15937;DHT22;9163;48.818;8.976;2022-12-18T10:38:23;5.50;99.90
15937;DHT22;9163;48.818;8.976;2022-12-18T10:40:52;5.90;99.90
15937;DHT22;9163;48.818;8.976;2022-12-18T10:43:23;4.50;99.90
15937;DHT22;9163;48.818;8.976;2022-12-18T10:46:05;4.30;99.90
15937;DHT22;9163;48.818;8.976;2022-12-18T10:48:47;4.80;99.90
15937;DHT22;9163;48.818;8.976;2022-12-18T10:51:20;4.20;99.90
15937;DHT22;9163;48.818;8.976;2022-12-18T10:53:53;4.20;99.90
15937;DHT22;9163;48.818;8.976;2022-12-18T10:56:22;3.90;99.90
15937;DHT22;9163;48.818;8.976;2022-12-18T10:58:58;3.70;99.90
15937;DHT22;9163;48.818;8.976;2022-12-18T11:01:27;5.50;99.90
15937;DHT22;9163;48.818;8.976;2022-12-18T11:04:08;5.90;99.90
15937;DHT22;9163;48.818;8.976;2022-12-18T11:06:53;6.70;99.90
15937;DHT22;9163;48.818;8.976;2022-12-18T11:09:22;6.80;99.90
15937;DHT22;9163;48.818;8.976;2022-12-18T11:11:50;6.30;99.90
15937;DHT22;9163;48.818;8.976;2022-12-18T11:14:23;5.30;99.90
15937;DHT22;9163;48.818;8.976;2022-12-18T11:16:52;5.90;99.90
15937;DHT22;9163;48.818;8.976;2022-12-18T11:19:24;7.20;99.90
15937;DHT22;9163;48.818;8.976;2022-12-18T11:21:52;7.70;99.90
15937;DHT22;9163;48.818;8.976;2022-12-18T11:24:24;8.30;99.90
15937;DHT22;9163;48.818;8.976;2022-12-18T11:26:54;9.70;99.90
15937;DHT22;9163;48.818;8.976;2022-12-18T11:29:29;9.50;99.90
15937;DHT22;9163;48.818;8.976;2022-12-18T11:32:27;9.60;99.80
15937;DHT22;9163;48.818;8.976;2022-12-18T11:35:02;9.30;98.30
15937;DHT22;9163;48.818;8.976;2022-12-18T11:37:31;7.80;99.50
15937;DHT22;9163;48.818;8.976;2022-12-18T11:40:01;6.80;99.90
15937;DHT22;9163;48.818;8.976;2022-12-18T11:42:35;7.20;99.90
15937;DHT22;9163;48.818;8.976;2022-12-18T11:45:29;8.10;99.90
15937;DHT22;9163;48.818;8.976;2022-12-18T11:48:01;7.30;99.90
15937;DHT22;9163;48.818;8.976;2022-12-18T11:50:37;8.30;99.90
15937;DHT22;9163;48.818;8.976;2022-12-18T11:53:11;8.40;99.90
15937;DHT22;9163;48.818;8.976;2022-12-18T11:55:43;9.30;99.10
15937;DHT22;9163;48.818;8.976;2022-12-18T11:58:23;9.20;99.40
15937;DHT22;9163;48.818;8.976;2022-12-18T12:01:01;9.30;98.70
15937;DHT22;9163;48.818;8.976;2022-12-18T12:03:51;9.00;98.30
15937;DHT22;9163;48.818;8.976;2022-12-18T12:06:31;9.00;98.50
15937;DHT22;9163;48.818;8.976;2022-12-18T12:09:06;8.90;98.30
15937;DHT22;9163;48.818;8.976;2022-12-18T12:11:43;7.80;98.30
15937;DHT22;9163;48.818;8.976;2022-12-18T12:14:32;6.90;99.50
15937;DHT22;9163;48.818;8.976;2022-12-18T12:17:05;6.50;99.90
15937;DHT22;9163;48.818;8.976;2022-12-18T12:19:44;6.00;99.90
15937;DHT22;9163;48.818;8.976;2022-12-18T12:22:18;6.20;99.90
15937;DHT22;9163;48.818;8.976;2022-12-18T12:24:59;6.10;99.90
15937;DHT22;9163;48.818;8.976;2022-12-18T12:27:37;5.60;99.90
15937;DHT22;9163;48.818;8.976;2022-12-18T12:30:09;4.40;99.90
15937;DHT22;9163;48.818;8.976;2022-12-18T12:32:49;4.60;99.90
15937;DHT22;9163;48.818;8.976;2022-12-18T12:35:29;4.10;99.90
15937;DHT22;9163;48.818;8.976;2022-12-18T12:38:05;4.10;99.90
15937;DHT22;9163;48.818;8.976;2022-12-18T12:40:35;4.00;99.90
15937;DHT22;9163;48.818;8.976;2022-12-18T12:43:10;4.10;99.90
15937;DHT22;9163;48.818;8.976;2022-12-18T12:45:42;3.70;99.90
15937;DHT22;9163;48.818;8.976;2022-12-18T12:48:17;3.80;99.90
15937;DHT22;9163;48.818;8.976;2022-12-18T12:50:45;4.30;99.90
15937;DHT22;9163;48.818;8.976;2022-12-18T12:53:23;4.30;99.90
15937;DHT22;9163;48.818;8.976;2022-12-18T12:55:52;4.40;99.90
15937;DHT22;9163;48.818;8.976;2022-12-18T12:58:29;4.50;99.90
15937;DHT22;9163;48.818;8.976;2022-12-18T13:01:04;4.10;99.90
15937;DHT22;9163;48.818;8.976;2022-12-18T13:03:45;4.80;99.90
15937;DHT22;9163;48.818;8.976;2022-12-18T13:06:19;4.70;99.90
15937;DHT22;9163;48.818;8.976;2022-12-18T13:08:54;4.90;99.90
15937;DHT22;9163;48.818;8.976;2022-12-18T13:11:39;5.70;99.90
15937;DHT22;9163;48.818;8.976;2022-12-18T13:14:27;6.00;99.90
15937;DHT22;9163;48.818;8.976;2022-12-18T13:17:29;5.70;99.90
15937;DHT22;9163;48.818;8.976;2022-12-18T13:20:21;5.70;99.90
15937;DHT22;9163;48.818;8.976;2022-12-18T13:22:59;5.40;99.90
15937;DHT22;9163;48.818;8.976;2022-12-18T13:25:31;5.20;99.90
15937;DHT22;9163;48.818;8.976;2022-12-18T13:28:07;4.50;99.90
15937;DHT22;9163;48.818;8.976;2022-12-18T13:30:49;4.10;99.90
15937;DHT22;9163;48.818;8.976;2022-12-18T13:33:39;4.40;99.90
15937;DHT22;9163;48.818;8.976;2022-12-18T13:39:10;3.90;99.90
15937;DHT22;9163;48.818;8.976;2022-12-18T13:41:38;3.70;99.90
15937;DHT22;9163;48.818;8.976;2022-12-18T13:44:12;3.30;99.90
15937;DHT22;9163;48.818;8.976;2022-12-18T13:46:44;2.50;99.90
15937;DHT22;9163;48.818;8.976;2022-12-18T13:49:21;2.60;99.90
15937;DHT22;9163;48.818;8.976;2022-12-18T13:51:52;2.50;99.90
15937;DHT22;9163;48.818;8.976;2022-12-18T13:54:25;2.40;99.90
15937;DHT22;9163;48.818;8.976;2022-12-18T13:56:54;2.30;99.90
15937;DHT22;9163;48.818;8.976;2022-12-18T13:59:23;2.50;99.90
15937;DHT22;9163;48.818;8.976;2022-12-18T14:01:53;2.50;99.90
15937;DHT22;9163;48.818;8.976;2022-12-18T14:04:23;2.10;99.90
15937;DHT22;9163;48.818;8.976;2022-12-18T14:06:56;1.50;99.90
15937;DHT22;9163;48.818;8.976;2022-12-18T14:09:26;1.40;99.90
15937;DHT22;9163;48.818;8.976;2022-12-18T14:11:56;1.10;99.90
15937;DHT22;9163;48.818;8.976;2022-12-18T14:14:46;1.00;99.90
15937;DHT22;9163;48.818;8.976;2022-12-18T14:17:15;1.00;99.90
15937;DHT22;9163;48.818;8.976;2022-12-18T14:19:44;0.80;99.90
15937;DHT22;9163;48.818;8.976;2022-12-18T14:22:17;0.80;99.90
15937;DHT22;9163;48.818;8.976;2022-12-18T14:24:46;0.70;99.90
15937;DHT22;9163;48.818;8.976;2022-12-18T14:27:22;0.60;99.90
15937;DHT22;9163;48.818;8.976;2022-12-18T14:29:50;0.40;99.90
15937;DHT22;9163;48.818;8.976;2022-12-18T14:32:19;0.40;99.90
15937;DHT22;9163;48.818;8.976;2022-12-18T14:34:47;0.20;99.90
15937;DHT22;9163;48.818;8.976;2022-12-18T14:37:20;0.10;99.90
15937;DHT22;9163;48.818;8.976;2022-12-18T14:39:58;0.10;99.90
15937;DHT22;9163;48.818;8.976;2022-12-18T14:42:26;-0.40;99.90
15937;DHT22;9163;48.818;8.976;2022-12-18T14:47:57;-0.90;99.90
15937;DHT22;9163;48.818;8.976;2022-12-18T14:50:25;-1.20;99.90
15937;DHT22;9163;48.818;8.976;2022-12-18T14:52:54;-1.40;99.90
15937;DHT22;9163;48.818;8.976;2022-12-18T14:55:21;-1.60;99.90
15937;DHT22;9163;48.818;8.976;2022-12-18T14:57:51;-1.70;99.90
15937;DHT22;9163;48.818;8.976;2022-12-18T15:00:21;-2.00;99.90
15937;DHT22;9163;48.818;8.976;2022-12-18T15:02:50;-2.10;99.90
15937;DHT22;9163;48.818;8.976;2022-12-18T15:05:20;-2.20;99.90
15937;DHT22;9163;48.818;8.976;2022-12-18T15:07:52;-2.30;99.90
15937;DHT22;9163;48.818;8.976;2022-12-18T15:10:22;-2.50;99.90
15937;DHT22;9163;48.818;8.976;2022-12-18T15:13:07;-2.60;99.90
15937;DHT22;9163;48.818;8.976;2022-12-18T15:15:48;-2.70;99.90
15937;DHT22;9163;48.818;8.976;2022-12-18T15:18:17;-3.00;99.90
15937;DHT22;9163;48.818;8.976;2022-12-18T15:20:48;-3.00;99.90
15937;DHT22;9163;48.818;8.976;2022-12-18T15:23:18;-3.10;99.90
15937;DHT22;9163;48.818;8.976;2022-12-18T15:25:48;-3.20;99.90
15937;DHT22;9163;48.818;8.976;2022-12-18T15:28:21;-3.30;99.90
15937;DHT22;9163;48.818;8.976;2022-12-18T15:31:04;-3.40;99.90
15937;DHT22;9163;48.818;8.976;2022-12-18T15:33:33;-3.50;99.90
15937;DHT22;9163;48.818;8.976;2022-12-18T15:36:02;-3.50;99.90
15937;DHT22;9163;48.818;8.976;2022-12-18T15:38:32;-3.50;99.90
15937;DHT22;9163;48.818;8.976;2022-12-18T15:41:01;-3.60;99.90
15937;DHT22;9163;48.818;8.976;2022-12-18T15:43:28;-3.70;99.90
15937;DHT22;9163;48.818;8.976;2022-12-18T15:46:05;-3.70;99.90
15937;DHT22;9163;48.818;8.976;2022-12-18T15:48:34;-3.80;99.90
15937;DHT22;9163;48.818;8.976;2022-12-18T15:51:02;-3.80;99.90
15937;DHT22;9163;48.818;8.976;2022-12-18T15:53:31;-3.80;99.90
15937;DHT22;9163;48.818;8.976;2022-12-18T15:56:00;-3.80;99.90
15937;DHT22;9163;48.818;8.976;2022-12-18T15:58:45;-3.90;99.90
15937;DHT22;9163;48.818;8.976;2022-12-18T16:01:13;-3.90;99.90
15937;DHT22;9163;48.818;8.976;2022-12-18T16:03:40;-3.90;99.90
15937;DHT22;9163;48.818;8.976;2022-12-18T16:06:09;-3.90;99.90
15937;DHT22;9163;48.818;8.976;2022-12-18T16:08:36;-3.90;99.90
15937;DHT22;9163;48.818;8.976;2022-12-18T16:11:05;-3.90;99.90
15937;DHT22;9163;48.818;8.976;2022-12-18T16:13:32;-3.90;99.90
15937;DHT22;9163;48.818;8.976;2022-12-18T16:16:00;-4.00;99.90
15937;DHT22;9163;48.818;8.976;2022-12-18T16:18:27;-4.00;99.90